createdAt,value
2019-04-04T00:01:16.726Z,11.23
2019-04-04T00:04:04.026Z,8.47
2019-04-04T00:06:51.549Z,7.67
2019-04-04T00:09:39.079Z,7.60
2019-04-04T00:12:08.069Z,8.00
2019-04-04T00:14:37.611Z,9.90
2019-04-04T00:17:25.143Z,9.10
2019-04-04T00:22:27.475Z,7.60
2019-04-04T00:25:15.016Z,8.07
2019-04-04T00:28:02.803Z,6.07
2019-04-04T00:30:50.445Z,7.70
2019-04-04T00:33:37.957Z,5.97
2019-04-04T00:36:25.674Z,5.07
2019-04-04T00:39:13.308Z,5.20
2019-04-04T00:41:42.984Z,5.70
2019-04-04T00:44:12.085Z,4.40
2019-04-04T00:46:40.478Z,7.17
2019-04-04T00:49:08.872Z,6.80
2019-04-04T00:51:39.057Z,7.40
2019-04-04T00:54:07.377Z,4.70
2019-04-04T00:56:35.767Z,8.07
2019-04-04T00:59:04.166Z,6.13
2019-04-04T01:01:51.812Z,10.17
2019-04-04T01:04:20.205Z,8.00
2019-04-04T01:07:07.837Z,6.03
2019-04-04T01:09:55.487Z,6.20
2019-04-04T01:12:23.879Z,10.93
2019-04-04T01:14:52.293Z,7.50
2019-04-04T01:17:39.924Z,8.63
2019-04-04T01:20:50.410Z,14.00
2019-04-04T01:23:37.614Z,9.23
2019-04-04T01:26:25.122Z,8.67
2019-04-04T01:29:12.650Z,11.40
2019-04-04T01:32:00.151Z,8.97
2019-04-04T01:34:28.553Z,12.10
2019-04-04T01:36:57.149Z,15.53
2019-04-04T01:39:27.071Z,16.27
2019-04-04T01:41:55.472Z,16.40
2019-04-04T01:44:43.157Z,19.73
2019-04-04T01:47:11.532Z,21.27
2019-04-04T01:49:39.935Z,15.93
2019-04-04T01:52:08.335Z,18.30
2019-04-04T01:54:36.732Z,12.13
2019-04-04T01:57:07.703Z,19.07
2019-04-04T02:02:09.608Z,17.50
2019-04-04T02:07:12.042Z,15.27
2019-04-04T02:09:43.252Z,16.17
2019-04-04T02:14:58.013Z,13.30
2019-04-04T02:17:26.419Z,14.50
2019-04-04T02:20:14.060Z,18.67
2019-04-04T02:22:42.453Z,12.33
2019-04-04T02:25:50.771Z,13.47
2019-04-04T02:33:42.211Z,13.30
2019-04-04T02:36:10.617Z,11.60
2019-04-04T02:38:39.008Z,11.40
2019-04-04T02:41:26.655Z,13.83
2019-04-04T02:44:14.167Z,11.57
2019-04-04T02:47:01.829Z,12.97
2019-04-04T02:49:49.465Z,12.10
2019-04-04T02:52:37.004Z,14.00
2019-04-04T02:55:45.283Z,12.07
2019-04-04T02:58:15.094Z,16.43
2019-04-04T03:01:08.868Z,15.17
2019-04-04T03:03:41.082Z,13.60
2019-04-04T03:06:07.996Z,13.83
2019-04-04T03:08:43.169Z,12.60
2019-04-04T03:11:13.736Z,13.37
2019-04-04T03:13:49.282Z,16.17
2019-04-04T03:16:21.473Z,18.40
2019-04-04T03:18:57.575Z,18.50
2019-04-04T03:21:29.791Z,14.33
2019-04-04T03:24:06.554Z,18.80
2019-04-04T03:26:42.070Z,23.60
2019-04-04T03:29:10.868Z,18.13
2019-04-04T03:31:44.004Z,17.90
2019-04-04T03:34:28.178Z,28.07
2019-04-04T03:36:47.120Z,21.27
2019-04-04T03:39:19.720Z,26.20
2019-04-04T03:41:48.671Z,28.53
2019-04-04T03:44:20.743Z,28.77
2019-04-04T03:46:49.781Z,34.53
2019-04-04T03:49:23.425Z,31.40
2019-04-04T03:51:53.414Z,28.43
2019-04-04T03:54:27.159Z,33.23
2019-04-04T03:56:57.367Z,33.63
2019-04-04T03:59:33.648Z,33.10
2019-04-04T04:02:04.307Z,34.77
2019-04-04T04:04:45.784Z,40.40
2019-04-04T04:07:19.991Z,43.57
2019-04-04T04:09:49.660Z,42.50
2019-04-04T04:12:27.304Z,40.87
2019-04-04T04:15:13.230Z,52.57
2019-04-04T04:18:26.772Z,49.97
2019-04-04T04:24:02.868Z,51.70
2019-04-04T04:26:56.886Z,45.30
2019-04-04T04:29:29.830Z,52.50
2019-04-04T04:31:57.445Z,45.70
2019-04-04T04:34:39.577Z,46.67
2019-04-04T04:37:20.506Z,48.27
2019-04-04T04:42:48.920Z,47.10
2019-04-04T04:45:36.541Z,50.00
2019-04-04T04:48:05.038Z,48.67
2019-04-04T04:50:52.699Z,44.50
2019-04-04T04:53:21.102Z,42.30
2019-04-04T04:58:56.070Z,40.40
2019-04-04T05:01:43.807Z,36.63
2019-04-04T05:04:12.158Z,42.50
2019-04-04T05:06:40.591Z,45.70
2019-04-04T05:09:09.004Z,46.10
2019-04-04T05:11:37.418Z,44.17
2019-04-04T05:14:05.858Z,51.70
2019-04-04T05:16:35.878Z,54.10
2019-04-04T05:19:04.665Z,53.97
2019-04-04T05:21:52.393Z,63.80
2019-04-04T05:24:40.139Z,54.53
2019-04-04T05:27:27.827Z,53.77
2019-04-04T05:29:56.210Z,59.30
2019-04-04T05:32:43.905Z,55.90
2019-04-04T05:35:15.060Z,43.63
2019-04-04T05:37:42.500Z,39.90
2019-04-04T05:40:50.785Z,46.17
2019-04-04T05:43:19.234Z,44.00
2019-04-04T05:46:06.787Z,41.07
2019-04-04T05:51:09.575Z,47.17
2019-04-04T05:56:14.845Z,47.47
2019-04-04T05:58:42.250Z,42.60
2019-04-04T06:03:59.743Z,45.43
2019-04-04T06:06:47.400Z,50.33
2019-04-04T06:14:56.383Z,47.73
2019-04-04T06:17:44.030Z,45.17
2019-04-04T06:20:52.341Z,37.70
2019-04-04T06:25:55.065Z,42.90
2019-04-04T06:28:23.468Z,36.07
2019-04-04T06:30:54.264Z,41.10
2019-04-04T06:33:21.987Z,42.97
2019-04-04T06:36:09.636Z,43.33
2019-04-04T06:38:38.041Z,43.57
2019-04-04T06:41:28.138Z,43.77
2019-04-04T06:44:15.569Z,45.47
2019-04-04T06:47:03.212Z,48.07
2019-04-04T06:49:50.866Z,46.50
2019-04-04T06:57:28.165Z,43.10
2019-04-04T07:00:16.570Z,42.00
2019-04-04T07:02:47.285Z,44.50
2019-04-04T07:05:55.861Z,40.33
2019-04-04T07:08:45.141Z,48.37
2019-04-04T07:11:32.999Z,48.87
2019-04-04T07:14:22.124Z,50.10
2019-04-04T07:19:57.230Z,51.37
2019-04-04T07:22:44.737Z,43.70
2019-04-04T07:25:13.207Z,43.03
2019-04-04T07:27:41.617Z,39.23
2019-04-04T07:30:49.938Z,47.83
2019-04-04T07:33:21.228Z,44.33
2019-04-04T07:35:48.894Z,47.73
2019-04-04T07:38:18.765Z,45.37
2019-04-04T07:40:47.168Z,44.73
2019-04-04T07:43:34.707Z,44.90
2019-04-04T07:46:15.642Z,42.60
2019-04-04T07:48:52.523Z,46.10
2019-04-04T07:51:20.933Z,44.63
2019-04-04T07:54:08.709Z,43.87
2019-04-04T07:56:37.230Z,43.60
2019-04-04T08:01:50.639Z,44.87
2019-04-04T08:04:09.418Z,50.50
2019-04-04T08:06:37.851Z,46.20
2019-04-04T08:09:46.174Z,44.07
2019-04-04T08:12:33.823Z,43.37
2019-04-04T08:15:02.250Z,48.27
2019-04-04T08:17:30.654Z,41.40
2019-04-04T08:20:00.106Z,46.30
2019-04-04T08:22:28.552Z,48.60
2019-04-04T08:24:56.961Z,47.63
2019-04-04T08:27:25.364Z,44.67
2019-04-04T08:29:53.774Z,51.23
2019-04-04T08:32:22.174Z,45.87
2019-04-04T08:34:50.585Z,48.37
2019-04-04T08:37:18.989Z,48.13
2019-04-04T08:39:47.411Z,48.33
2019-04-04T08:42:15.883Z,51.10
2019-04-04T08:44:44.294Z,44.97
2019-04-04T08:47:12.836Z,47.50
2019-04-04T08:49:41.256Z,40.67
2019-04-04T08:52:16.504Z,35.53
2019-04-04T08:54:39.788Z,45.87
2019-04-04T08:57:08.259Z,41.00
2019-04-04T08:59:36.684Z,39.53
2019-04-04T09:02:05.089Z,39.57
2019-04-04T09:04:33.504Z,36.23
2019-04-04T09:07:01.909Z,34.27
2019-04-04T09:09:30.327Z,35.43
2019-04-04T09:11:58.709Z,36.90
2019-04-04T09:14:27.119Z,34.00
2019-04-04T09:16:55.519Z,33.20
2019-04-04T09:19:23.934Z,32.93
2019-04-04T09:21:52.329Z,34.43
2019-04-04T09:24:20.747Z,31.43
2019-04-04T09:26:49.149Z,29.80
2019-04-04T09:29:17.562Z,28.90
2019-04-04T09:31:45.961Z,32.87
2019-04-04T09:34:14.376Z,36.80
2019-04-04T09:36:42.774Z,31.00
2019-04-04T09:39:11.182Z,32.23
2019-04-04T09:41:39.597Z,28.57
2019-04-04T09:44:08.013Z,30.00
2019-04-04T09:46:36.407Z,32.53
2019-04-04T09:49:04.951Z,30.50
2019-04-04T09:51:33.353Z,32.07
2019-04-04T09:54:01.750Z,28.30
2019-04-04T09:56:30.162Z,30.27
2019-04-04T09:58:58.566Z,32.33
2019-04-04T10:01:26.984Z,31.07
2019-04-04T10:03:55.384Z,29.63
2019-04-04T10:06:23.796Z,34.93
2019-04-04T10:08:52.191Z,29.27
2019-04-04T10:11:20.601Z,27.67
2019-04-04T10:13:49.001Z,30.13
2019-04-04T10:16:17.415Z,27.90
2019-04-04T10:18:45.816Z,29.03
2019-04-04T10:21:15.056Z,25.17
2019-04-04T10:23:43.458Z,24.67
2019-04-04T10:26:11.881Z,23.10
2019-04-04T10:28:40.290Z,26.63
2019-04-04T10:31:08.698Z,28.30
2019-04-04T10:33:37.105Z,25.70
2019-04-04T10:36:05.511Z,28.90
2019-04-04T10:38:33.908Z,24.50
2019-04-04T10:41:02.323Z,24.17
2019-04-04T10:43:30.724Z,22.20
2019-04-04T10:45:59.131Z,22.10
2019-04-04T10:48:27.535Z,24.47
2019-04-04T10:50:55.941Z,21.97
2019-04-04T10:53:24.344Z,24.03
2019-04-04T10:55:52.753Z,25.17
2019-04-04T10:58:21.153Z,25.30
2019-04-04T11:00:49.575Z,21.17
2019-04-04T11:03:17.970Z,26.07
2019-04-04T11:05:46.378Z,29.10
2019-04-04T11:08:14.777Z,22.00
2019-04-04T11:10:43.198Z,28.50
2019-04-04T11:13:11.614Z,23.23
2019-04-04T11:15:40.025Z,27.23
2019-04-04T11:18:08.426Z,27.73
2019-04-04T11:20:36.837Z,24.80
2019-04-04T11:23:05.237Z,25.30
2019-04-04T11:25:33.813Z,25.30
2019-04-04T11:28:02.212Z,25.00
2019-04-04T11:30:30.627Z,27.40
2019-04-04T11:32:59.033Z,24.30
2019-04-04T11:35:27.446Z,24.20
2019-04-04T11:37:55.852Z,25.27
2019-04-04T11:40:24.262Z,23.60
2019-04-04T11:42:52.662Z,27.33
2019-04-04T11:45:21.071Z,28.67
2019-04-04T11:47:49.462Z,30.63
2019-04-04T11:50:18.075Z,31.83
2019-04-04T11:52:46.472Z,28.73
2019-04-04T11:55:14.879Z,30.13
2019-04-04T11:57:43.276Z,27.57
2019-04-04T12:00:13.588Z,29.40
2019-04-04T12:02:42.078Z,26.80
2019-04-04T12:05:10.660Z,28.63
2019-04-04T12:07:39.056Z,28.50
2019-04-04T12:10:08.275Z,29.70
2019-04-04T12:12:36.779Z,29.33
2019-04-04T12:15:08.120Z,31.37
2019-04-04T12:17:36.535Z,30.93
2019-04-04T12:20:06.474Z,32.90
2019-04-04T12:22:34.899Z,29.80
2019-04-04T12:25:03.355Z,30.20
2019-04-04T12:27:31.765Z,34.00
2019-04-04T12:30:00.180Z,30.37
2019-04-04T12:32:28.585Z,32.03
2019-04-04T12:34:56.983Z,28.03
2019-04-04T12:37:25.394Z,32.20
2019-04-04T12:39:53.805Z,29.37
2019-04-04T12:42:22.212Z,28.93
2019-04-04T12:44:50.708Z,30.50
2019-04-04T12:47:19.126Z,36.63
2019-04-04T12:49:47.528Z,28.63
2019-04-04T12:52:15.942Z,31.90
2019-04-04T12:54:44.341Z,28.60
2019-04-04T12:57:12.753Z,25.83
2019-04-04T12:59:41.153Z,30.97
2019-04-04T13:02:09.565Z,27.23
2019-04-04T13:04:37.960Z,28.50
2019-04-04T13:07:06.366Z,27.63
2019-04-04T13:09:34.766Z,29.10
2019-04-04T13:12:03.176Z,24.77
2019-04-04T13:14:31.577Z,25.80
2019-04-04T13:16:59.989Z,23.80
2019-04-04T13:19:28.384Z,28.23
2019-04-04T13:21:56.796Z,29.23
2019-04-04T13:24:25.194Z,29.27
2019-04-04T13:26:53.602Z,25.60
2019-04-04T13:29:22.000Z,29.47
2019-04-04T13:31:50.410Z,28.60
2019-04-04T13:34:18.816Z,26.23
2019-04-04T13:36:47.220Z,25.50
2019-04-04T13:39:15.629Z,21.63
2019-04-04T13:41:44.031Z,29.57
2019-04-04T13:44:12.447Z,24.20
2019-04-04T13:46:40.851Z,33.80
2019-04-04T13:49:09.642Z,24.80
2019-04-04T13:51:38.020Z,28.80
2019-04-04T13:54:06.427Z,28.63
2019-04-04T13:56:35.076Z,28.17
2019-04-04T13:59:05.951Z,26.30
2019-04-04T14:01:33.597Z,25.10
2019-04-04T14:04:02.007Z,30.20
2019-04-04T14:06:30.411Z,26.47
2019-04-04T14:08:58.821Z,26.90
2019-04-04T14:11:27.461Z,25.37
2019-04-04T14:13:58.693Z,30.97
2019-04-04T14:16:26.002Z,26.90
2019-04-04T14:18:54.412Z,32.60
2019-04-04T14:21:22.811Z,31.73
2019-04-04T14:23:52.986Z,28.17
2019-04-04T14:26:21.768Z,30.50
2019-04-04T14:28:50.182Z,28.07
2019-04-04T14:31:18.590Z,42.83
2019-04-04T14:33:46.996Z,27.90
2019-04-04T14:36:15.400Z,25.10
2019-04-04T14:38:43.808Z,27.03
2019-04-04T14:41:12.285Z,28.33
2019-04-04T14:43:40.667Z,30.47
2019-04-04T14:46:09.063Z,29.63
2019-04-04T14:48:37.476Z,30.97
2019-04-04T14:51:05.873Z,29.50
2019-04-04T14:53:34.279Z,26.83
2019-04-04T14:56:02.685Z,29.60
2019-04-04T14:58:31.192Z,29.90
2019-04-04T15:00:59.592Z,28.65
2019-04-04T15:03:28.000Z,32.90
2019-04-04T15:05:56.456Z,28.73
2019-04-04T15:08:24.867Z,31.20
2019-04-04T15:10:53.267Z,30.47
2019-04-04T15:13:21.704Z,25.40
2019-04-04T15:16:12.747Z,30.33
2019-04-04T15:18:41.147Z,27.47
2019-04-04T15:21:10.319Z,30.90
2019-04-04T15:23:38.779Z,31.77
2019-04-04T15:26:09.620Z,27.67
2019-04-04T15:28:37.392Z,28.90
2019-04-04T15:31:05.978Z,27.73
2019-04-04T15:33:34.548Z,35.03
2019-04-04T15:36:02.965Z,28.27
2019-04-04T15:38:31.361Z,24.77
2019-04-04T15:40:59.763Z,27.80
2019-04-04T15:43:28.295Z,31.40
2019-04-04T15:45:56.728Z,34.47
2019-04-04T15:48:25.139Z,29.73
2019-04-04T15:50:53.589Z,23.87
2019-04-04T15:53:22.002Z,27.77
2019-04-04T15:55:50.408Z,34.47
2019-04-04T15:58:18.817Z,29.63
2019-04-04T16:00:47.318Z,38.73
2019-04-04T16:03:15.736Z,31.30
2019-04-04T16:05:44.180Z,41.47
2019-04-04T16:08:12.596Z,49.90
2019-04-04T16:10:40.997Z,43.47
2019-04-04T16:13:09.399Z,44.70
2019-04-04T16:15:37.811Z,46.40
2019-04-04T16:18:06.228Z,62.17
2019-04-04T16:20:34.670Z,47.03
2019-04-04T16:23:03.082Z,48.43
2019-04-04T16:25:31.530Z,52.57
2019-04-04T16:27:59.933Z,56.87
2019-04-04T16:30:28.341Z,47.40
2019-04-04T16:32:56.854Z,53.70
2019-04-04T16:35:25.267Z,49.33
2019-04-04T16:37:53.715Z,47.70
2019-04-04T16:40:22.459Z,48.63
2019-04-04T16:42:50.859Z,46.57
2019-04-04T16:45:19.278Z,44.20
2019-04-04T16:47:47.674Z,43.17
2019-04-04T16:50:16.421Z,42.13
2019-04-04T16:52:44.825Z,40.73
2019-04-04T16:55:13.771Z,39.40
2019-04-04T16:57:43.533Z,38.17
2019-04-04T17:00:13.614Z,38.03
2019-04-04T17:02:42.022Z,31.27
2019-04-04T17:05:11.328Z,27.13
2019-04-04T17:07:39.849Z,32.33
2019-04-04T17:10:08.992Z,29.10
2019-04-04T17:12:37.398Z,27.40
2019-04-04T17:15:07.541Z,29.00
2019-04-04T17:17:35.979Z,31.20
2019-04-04T17:20:06.599Z,31.27
2019-04-04T17:22:35.011Z,31.30
2019-04-04T17:25:03.485Z,35.70
2019-04-04T17:27:31.891Z,34.93
2019-04-04T17:30:00.385Z,31.70
2019-04-04T17:32:28.806Z,30.97
2019-04-04T17:34:57.207Z,32.23
2019-04-04T17:37:25.686Z,33.00
2019-04-04T17:39:54.608Z,39.73
2019-04-04T17:42:30.754Z,32.67
2019-04-04T17:44:53.638Z,45.83
2019-04-04T17:47:22.564Z,35.27
2019-04-04T17:49:51.496Z,35.67
2019-04-04T17:52:19.851Z,35.73
2019-04-04T17:54:48.646Z,39.07
2019-04-04T17:57:18.184Z,39.07
2019-04-04T17:59:46.597Z,42.90
2019-04-04T18:02:15.005Z,42.67
2019-04-04T18:04:48.580Z,45.67
2019-04-04T18:07:13.567Z,44.20
2019-04-04T18:09:41.982Z,42.07
2019-04-04T18:12:10.380Z,42.37
2019-04-04T18:14:38.789Z,50.10
2019-04-04T18:17:07.190Z,47.87
2019-04-04T18:19:35.612Z,47.97
2019-04-04T18:22:04.200Z,44.73
2019-04-04T18:24:32.587Z,47.63
2019-04-04T18:27:01.262Z,45.80
2019-04-04T18:29:29.748Z,50.63
2019-04-04T18:31:58.170Z,50.40
2019-04-04T18:34:26.884Z,49.43
2019-04-04T18:36:55.362Z,52.70
2019-04-04T18:39:26.436Z,55.63
2019-04-04T18:41:53.893Z,56.93
2019-04-04T18:44:22.300Z,55.93
2019-04-04T18:46:50.719Z,48.57
2019-04-04T18:49:19.133Z,48.13
2019-04-04T18:51:47.532Z,54.07
2019-04-04T18:54:15.939Z,59.13
2019-04-04T18:56:44.349Z,51.47
2019-04-04T18:59:12.744Z,47.87
2019-04-04T19:01:41.159Z,57.03
2019-04-04T19:04:09.558Z,49.13
2019-04-04T19:06:38.040Z,69.07
2019-04-04T19:09:14.969Z,48.80
2019-04-04T19:11:40.889Z,64.70
2019-04-04T19:14:09.286Z,45.83
2019-04-04T19:16:37.733Z,47.50
2019-04-04T19:19:06.131Z,51.10
2019-04-04T19:21:34.533Z,60.63
2019-04-04T19:24:02.938Z,48.40
2019-04-04T19:26:31.458Z,59.40
2019-04-04T19:28:59.852Z,41.43
2019-04-04T19:31:28.435Z,59.90
2019-04-04T19:33:56.838Z,56.57
2019-04-04T19:36:25.254Z,48.47
2019-04-04T19:38:53.661Z,56.20
2019-04-04T19:41:22.070Z,52.83
2019-04-04T19:43:50.472Z,53.73
2019-04-04T19:46:18.876Z,57.33
2019-04-04T19:48:48.472Z,47.57
2019-04-04T19:51:16.858Z,58.03
2019-04-04T19:53:45.253Z,51.17
2019-04-04T19:56:13.673Z,43.33
2019-04-04T19:58:42.073Z,44.30
2019-04-04T20:01:11.052Z,44.00
2019-04-04T20:03:39.451Z,48.37
2019-04-04T20:06:07.871Z,45.47
2019-04-04T20:08:36.334Z,43.37
2019-04-04T20:11:04.919Z,48.17
2019-04-04T20:13:33.550Z,42.93
2019-04-04T20:18:35.685Z,61.37
2019-04-04T20:21:04.133Z,48.27
2019-04-04T20:23:51.717Z,47.33
2019-04-04T20:26:20.170Z,39.53
2019-04-04T20:31:43.025Z,45.53
2019-04-04T20:34:11.420Z,47.77
2019-04-04T20:36:59.072Z,49.20
2019-04-04T20:39:46.722Z,54.63
2019-04-04T20:42:34.384Z,47.67
2019-04-04T20:45:02.791Z,54.23
2019-04-04T20:47:50.442Z,54.93
2019-04-04T20:53:06.358Z,58.87
2019-04-04T20:55:53.891Z,50.70
2019-04-04T20:58:22.303Z,61.90
2019-04-04T21:01:09.814Z,53.87
2019-04-04T21:03:38.223Z,51.30
2019-04-04T21:06:06.629Z,64.63
2019-04-04T21:08:35.035Z,60.43
2019-04-04T21:13:56.299Z,53.20
2019-04-04T21:16:43.223Z,57.57
2019-04-04T21:19:11.684Z,64.13
2019-04-04T21:24:14.415Z,57.73
2019-04-04T21:27:01.972Z,62.40
2019-04-04T21:32:17.934Z,67.50
2019-04-04T21:34:46.339Z,57.43
2019-04-04T21:37:33.879Z,66.40
2019-04-04T21:40:02.293Z,68.23
2019-04-04T21:42:49.947Z,61.00
2019-04-04T21:45:18.345Z,69.63
2019-04-04T21:48:05.879Z,61.27
2019-04-04T21:53:21.729Z,64.37
2019-04-04T21:55:50.134Z,68.90
2019-04-04T21:58:18.561Z,55.77
2019-04-04T22:01:06.204Z,66.77
2019-04-04T22:03:53.855Z,68.50
2019-04-04T22:06:22.254Z,66.40
2019-04-04T22:09:09.784Z,58.03
2019-04-04T22:11:57.498Z,62.03
2019-04-04T22:14:25.898Z,54.97
2019-04-04T22:16:54.297Z,58.90
2019-04-04T22:19:41.960Z,65.90
2019-04-04T22:22:29.481Z,64.17
2019-04-04T22:25:17.127Z,58.13
2019-04-04T22:28:04.777Z,50.20
2019-04-04T22:30:33.180Z,71.00
2019-04-04T22:33:20.829Z,56.50
2019-04-04T22:35:49.226Z,64.77
2019-04-04T22:41:32.782Z,51.67
2019-04-04T22:44:19.350Z,55.17
2019-04-04T22:49:35.200Z,56.87
2019-04-04T22:52:03.612Z,50.27
2019-04-04T22:54:51.268Z,52.40
2019-04-04T22:57:38.935Z,51.17
2019-04-04T23:00:47.246Z,54.23
2019-04-04T23:06:13.844Z,49.90
2019-04-04T23:08:42.251Z,47.83
2019-04-04T23:11:29.772Z,44.93
2019-04-04T23:14:17.429Z,45.10
2019-04-04T23:17:05.081Z,47.47
2019-04-04T23:19:52.602Z,43.40
2019-04-04T23:22:52.117Z,38.63
2019-04-04T23:25:50.404Z,40.17
2019-04-04T23:28:18.814Z,45.07
2019-04-04T23:31:06.330Z,43.07
2019-04-04T23:33:53.853Z,35.63
2019-04-04T23:36:41.494Z,37.07
2019-04-04T23:39:09.905Z,33.93
2019-04-04T23:44:45.087Z,37.00
2019-04-04T23:47:42.603Z,39.93
2019-04-04T23:52:57.251Z,36.10
2019-04-04T23:58:18.761Z,35.70
